createdAt,value
2018-06-02T00:07:58.284Z,22.7
2018-06-02T00:17:57.460Z,22.6
2018-06-02T00:27:56.723Z,22.6
2018-06-02T00:37:55.898Z,22.6
2018-06-02T00:47:55.432Z,22.6
2018-06-02T00:57:54.331Z,22.6
2018-06-02T01:07:53.605Z,22.5
2018-06-02T01:17:52.797Z,22.5
2018-06-02T01:27:52.059Z,22.4
2018-06-02T01:37:51.251Z,22.4
2018-06-02T01:47:50.754Z,22.4
2018-06-02T01:57:49.662Z,22.3
2018-06-02T02:07:48.891Z,22.3
2018-06-02T02:17:48.133Z,22.2
2018-06-02T02:27:47.341Z,22.2
2018-06-02T02:37:46.606Z,22.1
2018-06-02T02:47:45.785Z,22.1
2018-06-02T02:57:45.009Z,22
2018-06-02T03:07:44.532Z,21.9
2018-06-02T03:17:43.465Z,21.9
2018-06-02T03:27:42.669Z,21.8
2018-06-02T03:37:42.176Z,21.8
2018-06-02T03:47:41.116Z,21.8
2018-06-02T03:57:40.340Z,21.8
2018-06-02T04:07:39.569Z,21.9
2018-06-02T04:17:39.087Z,22.1
2018-06-02T04:27:38.339Z,22.2
2018-06-02T04:37:37.232Z,22.4
2018-06-02T04:47:36.748Z,22.6
2018-06-02T04:57:35.669Z,22.8
2018-06-02T05:07:34.879Z,23.1
2018-06-02T05:17:34.399Z,23.3
2018-06-02T05:27:33.386Z,23.4
2018-06-02T05:37:32.554Z,23.6
2018-06-02T05:47:31.784Z,23.8
2018-06-02T05:57:31.112Z,23.9
2018-06-02T06:07:30.502Z,24.1
2018-06-02T06:17:29.449Z,24.4
2018-06-02T06:27:28.714Z,24.6
2018-06-02T06:37:27.887Z,24.9
2018-06-02T06:47:27.114Z,25.2
2018-06-02T06:57:26.330Z,25.4
2018-06-02T07:07:25.844Z,25.6
2018-06-02T07:17:24.795Z,25.7
2018-06-02T07:27:24.314Z,25.8
2018-06-02T07:37:23.253Z,25.9
2018-06-02T07:47:22.460Z,26.1
2018-06-02T07:57:22.005Z,26.3
2018-06-02T08:07:20.918Z,26.4
2018-06-02T08:17:20.146Z,26.6
2018-06-02T08:27:19.390Z,26.7
2018-06-02T08:37:18.605Z,26.8
2018-06-02T08:47:17.832Z,26.8
2018-06-02T08:57:17.111Z,26.8
2018-06-02T09:07:16.278Z,26.9
2018-06-02T09:17:15.512Z,26.9
2018-06-02T09:27:14.740Z,27
2018-06-02T09:37:13.955Z,26.9
2018-06-02T09:47:13.523Z,26.9
2018-06-02T09:57:12.508Z,26.9
2018-06-02T10:07:11.638Z,26.9
2018-06-02T10:17:10.881Z,26.9
2018-06-02T10:27:10.146Z,26.8
2018-06-02T10:37:09.627Z,26.8
2018-06-02T10:47:08.602Z,26.8
2018-06-02T10:57:07.814Z,26.9
2018-06-02T11:07:06.992Z,26.9
2018-06-02T11:17:06.214Z,26.9
2018-06-02T11:27:05.507Z,26.9
2018-06-02T11:37:04.688Z,26.9
2018-06-02T11:47:03.894Z,27
2018-06-02T11:57:03.176Z,27
2018-06-02T12:07:02.363Z,26.9
2018-06-02T12:17:01.583Z,26.9
2018-06-02T12:27:00.815Z,26.8
2018-06-02T12:37:00.079Z,26.8
2018-06-02T12:46:59.258Z,26.8
2018-06-02T12:56:58.532Z,26.8
2018-06-02T13:06:57.698Z,26.8
2018-06-02T13:16:56.926Z,26.8
2018-06-02T13:26:56.152Z,26.8
2018-06-02T13:36:55.387Z,26.8
2018-06-02T13:46:54.628Z,26.8
2018-06-02T13:56:53.848Z,26.8
2018-06-02T14:06:53.071Z,26.7
2018-06-02T14:16:52.293Z,26.6
2018-06-02T14:26:51.850Z,26.6
2018-06-02T14:36:50.779Z,26.5
2018-06-02T14:46:49.998Z,26.4
2018-06-02T14:56:49.205Z,26.3
2018-06-02T15:06:48.449Z,26.3
2018-06-02T15:16:47.717Z,26.2
2018-06-02T15:26:46.892Z,26.1
2018-06-02T15:36:46.180Z,26.1
2018-06-02T15:46:45.367Z,26
2018-06-02T15:56:44.660Z,25.9
2018-06-02T16:06:44.104Z,25.4
2018-06-02T16:16:43.041Z,24.9
2018-06-02T16:26:42.287Z,24.6
2018-06-02T16:36:41.520Z,24.4
2018-06-02T16:46:40.736Z,24.3
2018-06-02T16:56:39.954Z,24.3
2018-06-02T17:06:39.181Z,24.2
2018-06-02T17:16:38.410Z,24.2
2018-06-02T17:26:37.652Z,24.3
2018-06-02T17:36:36.875Z,24.4
2018-06-02T17:46:36.199Z,24.6
2018-06-02T17:56:35.327Z,24.7
2018-06-02T18:06:34.901Z,24.7
2018-06-02T18:16:33.781Z,24.8
2018-06-02T18:26:33.007Z,24.9
2018-06-02T18:36:32.254Z,24.8
2018-06-02T18:46:31.458Z,24.7
2018-06-02T18:56:30.684Z,24.5
2018-06-02T19:06:29.987Z,24.4
2018-06-02T19:16:29.213Z,24.3
2018-06-02T19:26:28.669Z,24.3
2018-06-02T19:36:27.631Z,24.1
2018-06-02T19:46:26.833Z,23.9
2018-06-02T19:56:26.064Z,23.8
2018-06-02T20:06:25.294Z,23.8
2018-06-02T20:16:24.591Z,23.7
2018-06-02T20:26:23.822Z,23.6
2018-06-02T20:36:23.334Z,23.6
2018-06-02T20:46:22.228Z,23.6
2018-06-02T20:56:21.533Z,23.4
2018-06-02T21:06:20.672Z,23.4
2018-06-02T21:16:19.951Z,23.3
2018-06-02T21:26:19.124Z,23.3
2018-06-02T21:36:18.351Z,23.1
2018-06-02T21:46:17.609Z,23.1
2018-06-02T21:56:16.851Z,23
2018-06-02T22:06:16.045Z,22.9
2018-06-02T22:16:15.262Z,22.8
2018-06-02T22:26:14.597Z,22.7
2018-06-02T22:36:13.832Z,22.6
2018-06-02T22:46:12.965Z,22.6
2018-06-02T22:56:12.179Z,22.5
2018-06-02T23:06:11.411Z,22.4
2018-06-02T23:16:10.977Z,22.4
2018-06-02T23:26:10.143Z,22.3
2018-06-02T23:36:09.081Z,22.3
2018-06-02T23:46:08.319Z,22.2
2018-06-02T23:56:07.530Z,22.1
